createdAt,value
2022-10-07T00:01:12.266Z,16.60
2022-10-07T00:03:41.878Z,16.50
2022-10-07T00:06:13.923Z,16.50
2022-10-07T00:08:43.453Z,16.50
2022-10-07T00:11:15.348Z,16.50
2022-10-07T00:13:46.614Z,16.40
2022-10-07T00:16:26.717Z,16.40
2022-10-07T00:18:58.476Z,16.40
2022-10-07T00:21:29.451Z,16.40
2022-10-07T00:23:58.002Z,16.40
2022-10-07T00:26:29.391Z,16.40
2022-10-07T00:28:57.483Z,16.30
2022-10-07T00:31:27.457Z,16.30
2022-10-07T00:33:56.296Z,16.30
2022-10-07T00:36:27.917Z,16.20
2022-10-07T00:39:04.045Z,16.20
2022-10-07T00:41:37.732Z,16.20
2022-10-07T00:44:33.796Z,16.10
2022-10-07T00:47:03.676Z,16.10
2022-10-07T00:49:37.973Z,16.10
2022-10-07T00:52:07.998Z,16.10
2022-10-07T00:54:38.662Z,16.10
2022-10-07T00:57:06.080Z,16.00
2022-10-07T00:59:36.177Z,16.00
2022-10-07T01:02:03.958Z,16.00
2022-10-07T01:04:34.037Z,16.00
2022-10-07T01:07:01.448Z,16.00
2022-10-07T01:09:28.795Z,15.90
2022-10-07T01:12:16.824Z,15.90
2022-10-07T01:15:08.376Z,15.90
2022-10-07T01:17:50.837Z,15.80
2022-10-07T01:20:36.609Z,15.90
2022-10-07T01:23:39.430Z,15.80
2022-10-07T01:26:33.065Z,15.80
2022-10-07T01:29:11.315Z,15.80
2022-10-07T01:31:55.627Z,15.70
2022-10-07T01:34:26.671Z,15.70
2022-10-07T01:36:57.151Z,15.70
2022-10-07T01:39:33.195Z,15.70
2022-10-07T01:42:03.329Z,15.60
2022-10-07T01:44:33.405Z,15.60
2022-10-07T01:47:00.764Z,15.60
2022-10-07T01:49:30.220Z,15.50
2022-10-07T01:52:12.301Z,15.50
2022-10-07T01:55:03.368Z,15.50
2022-10-07T01:58:18.594Z,15.40
2022-10-07T02:00:59.260Z,15.40
2022-10-07T02:03:35.434Z,15.40
2022-10-07T02:06:14.896Z,15.40
2022-10-07T02:08:55.043Z,15.40
2022-10-07T02:11:31.315Z,15.30
2022-10-07T02:14:15.411Z,15.30
2022-10-07T02:17:02.714Z,15.30
2022-10-07T02:19:40.994Z,15.30
2022-10-07T02:22:15.404Z,15.20
2022-10-07T02:24:44.546Z,15.20
2022-10-07T02:27:16.110Z,15.20
2022-10-07T02:29:45.604Z,15.20
2022-10-07T02:32:20.557Z,15.10
2022-10-07T02:35:00.213Z,15.10
2022-10-07T02:37:35.247Z,15.10
2022-10-07T02:40:09.675Z,15.10
2022-10-07T02:43:00.564Z,15.10
2022-10-07T02:45:46.186Z,15.10
2022-10-07T02:48:24.690Z,15.00
2022-10-07T02:50:58.666Z,15.00
2022-10-07T02:53:32.156Z,15.00
2022-10-07T02:56:02.377Z,15.00
2022-10-07T02:58:29.645Z,15.00
2022-10-07T03:01:00.177Z,14.90
2022-10-07T03:03:30.560Z,14.90
2022-10-07T03:05:58.604Z,14.90
2022-10-07T03:08:26.399Z,15.00
2022-10-07T03:10:53.664Z,15.00
2022-10-07T03:13:20.966Z,15.00
2022-10-07T03:15:51.997Z,15.00
2022-10-07T03:18:29.462Z,15.00
2022-10-07T03:21:01.050Z,15.10
2022-10-07T03:23:31.700Z,15.10
2022-10-07T03:25:59.928Z,15.10
2022-10-07T03:28:30.094Z,15.10
2022-10-07T03:31:08.372Z,15.10
2022-10-07T03:33:37.279Z,15.10
2022-10-07T03:36:08.730Z,15.20
2022-10-07T03:38:36.400Z,15.20
2022-10-07T03:41:08.389Z,15.20
2022-10-07T03:43:38.365Z,15.20
2022-10-07T03:46:10.645Z,15.20
2022-10-07T03:48:38.088Z,15.20
2022-10-07T03:51:05.578Z,15.20
2022-10-07T03:53:32.882Z,15.10
2022-10-07T03:56:03.024Z,15.10
2022-10-07T03:58:30.306Z,15.20
2022-10-07T04:01:08.628Z,15.20
2022-10-07T04:03:35.931Z,15.20
2022-10-07T04:06:05.580Z,15.20
2022-10-07T04:08:33.487Z,15.20
2022-10-07T04:11:02.524Z,15.20
2022-10-07T04:13:32.380Z,15.30
2022-10-07T04:16:05.089Z,15.30
2022-10-07T04:18:34.875Z,15.20
2022-10-07T04:21:02.280Z,15.30
2022-10-07T04:23:29.529Z,15.30
2022-10-07T04:25:58.247Z,15.30
2022-10-07T04:28:26.743Z,15.30
2022-10-07T04:30:54.578Z,15.20
2022-10-07T04:33:23.979Z,15.20
2022-10-07T04:35:54.943Z,15.20
2022-10-07T04:38:28.212Z,15.20
2022-10-07T04:40:55.744Z,15.20
2022-10-07T04:43:27.343Z,15.20
2022-10-07T04:45:55.244Z,15.20
2022-10-07T04:48:23.876Z,15.20
2022-10-07T04:50:52.319Z,15.30
2022-10-07T04:53:20.500Z,15.20
2022-10-07T04:55:50.136Z,15.20
2022-10-07T04:58:18.980Z,15.20
2022-10-07T05:00:52.025Z,15.20
2022-10-07T05:03:21.884Z,15.20
2022-10-07T05:05:51.504Z,15.20
2022-10-07T05:08:22.542Z,15.20
2022-10-07T05:10:57.800Z,15.20
2022-10-07T05:13:28.004Z,15.30
2022-10-07T05:16:00.674Z,15.30
2022-10-07T05:18:29.232Z,15.30
2022-10-07T05:20:57.043Z,15.30
2022-10-07T05:23:28.585Z,15.30
2022-10-07T05:26:01.861Z,15.30
2022-10-07T05:28:29.254Z,15.30
2022-10-07T05:31:15.611Z,15.40
2022-10-07T05:33:46.153Z,15.40
2022-10-07T05:36:15.712Z,15.40
2022-10-07T05:38:45.923Z,15.40
2022-10-07T05:41:13.279Z,15.40
2022-10-07T05:43:45.077Z,15.40
2022-10-07T05:46:16.780Z,15.50
2022-10-07T05:48:53.932Z,15.40
2022-10-07T05:51:24.873Z,15.50
2022-10-07T05:53:55.943Z,15.50
2022-10-07T05:56:25.780Z,15.50
2022-10-07T05:58:53.792Z,15.50
2022-10-07T06:01:22.758Z,15.50
2022-10-07T06:03:54.386Z,15.50
2022-10-07T06:06:24.096Z,15.50
2022-10-07T06:08:52.553Z,15.60
2022-10-07T06:11:38.785Z,15.60
2022-10-07T06:14:08.996Z,15.60
2022-10-07T06:16:38.549Z,15.70
2022-10-07T06:19:22.418Z,15.70
2022-10-07T06:21:50.605Z,15.70
2022-10-07T06:24:17.889Z,15.70
2022-10-07T06:26:48.007Z,15.80
2022-10-07T06:29:15.248Z,15.70
2022-10-07T06:31:42.568Z,15.80
2022-10-07T06:34:12.045Z,15.80
2022-10-07T06:36:39.302Z,15.80
2022-10-07T06:39:06.608Z,15.80
2022-10-07T06:41:36.329Z,15.90
2022-10-07T06:44:03.647Z,15.90
2022-10-07T06:46:31.205Z,15.90
2022-10-07T06:48:58.565Z,16.00
2022-10-07T06:51:25.894Z,16.00
2022-10-07T06:53:58.783Z,16.00
2022-10-07T06:56:26.131Z,16.10
2022-10-07T06:58:53.423Z,16.10
2022-10-07T07:01:20.877Z,16.20
2022-10-07T07:03:50.427Z,16.20
2022-10-07T07:06:17.718Z,16.20
2022-10-07T07:08:46.007Z,16.30
2022-10-07T07:11:35.844Z,16.30
2022-10-07T07:14:04.554Z,16.40
2022-10-07T07:16:35.582Z,16.40
2022-10-07T07:19:08.767Z,16.50
2022-10-07T07:21:40.835Z,16.50
2022-10-07T07:24:08.612Z,16.60
2022-10-07T07:26:40.228Z,16.60
2022-10-07T07:29:07.726Z,16.60
2022-10-07T07:31:36.924Z,16.70
2022-10-07T07:34:07.304Z,16.70
2022-10-07T07:36:37.702Z,16.80
2022-10-07T07:39:08.705Z,16.80
2022-10-07T07:41:40.646Z,16.80
2022-10-07T07:44:12.952Z,16.80
2022-10-07T07:46:45.678Z,16.80
2022-10-07T07:49:14.400Z,16.90
2022-10-07T07:51:44.847Z,16.90
2022-10-07T07:54:15.897Z,16.90
2022-10-07T07:56:48.004Z,16.90
2022-10-07T07:59:15.705Z,17.00
2022-10-07T08:01:44.145Z,17.00
2022-10-07T08:04:11.647Z,17.00
2022-10-07T08:06:41.482Z,17.00
2022-10-07T08:09:12.833Z,17.00
2022-10-07T08:11:46.035Z,17.10
2022-10-07T08:14:14.667Z,17.10
2022-10-07T08:16:45.348Z,17.10
2022-10-07T08:19:12.586Z,17.10
2022-10-07T08:21:40.462Z,17.20
2022-10-07T08:24:09.842Z,17.20
2022-10-07T08:26:38.169Z,17.20
2022-10-07T08:29:05.818Z,17.20
2022-10-07T08:31:35.906Z,17.20
2022-10-07T08:34:05.000Z,17.30
2022-10-07T08:36:33.756Z,17.30
2022-10-07T08:39:13.092Z,17.30
2022-10-07T08:42:13.386Z,17.30
2022-10-07T08:44:54.444Z,17.30
2022-10-07T08:47:43.691Z,17.30
2022-10-07T08:50:19.462Z,17.30
2022-10-07T08:52:47.339Z,17.30
2022-10-07T08:55:18.779Z,17.30
2022-10-07T08:58:05.538Z,17.30
2022-10-07T09:00:50.581Z,17.30
2022-10-07T09:03:24.993Z,17.30
2022-10-07T09:05:57.111Z,17.30
2022-10-07T09:08:36.075Z,17.30
2022-10-07T09:11:15.855Z,17.30
2022-10-07T09:13:49.200Z,17.30
2022-10-07T09:16:23.223Z,17.30
2022-10-07T09:18:59.014Z,17.30
2022-10-07T09:21:49.806Z,17.30
2022-10-07T09:24:20.221Z,17.30
2022-10-07T09:26:55.265Z,17.40
2022-10-07T09:29:24.616Z,17.30
2022-10-07T09:31:55.467Z,17.40
2022-10-07T09:34:25.784Z,17.40
2022-10-07T09:37:24.646Z,17.40
2022-10-07T09:39:54.704Z,17.40
2022-10-07T09:42:44.054Z,17.40
2022-10-07T09:45:32.242Z,17.40
2022-10-07T09:48:16.892Z,17.40
2022-10-07T09:50:48.060Z,17.40
2022-10-07T09:53:24.891Z,17.50
2022-10-07T09:55:54.643Z,17.50
2022-10-07T09:58:27.299Z,17.50
2022-10-07T10:00:57.335Z,17.50
2022-10-07T10:03:35.877Z,17.50
2022-10-07T10:06:08.913Z,17.60
2022-10-07T10:08:41.626Z,17.60
2022-10-07T10:11:21.040Z,17.60
2022-10-07T10:13:52.050Z,17.60
2022-10-07T10:16:25.957Z,17.60
2022-10-07T10:18:59.017Z,17.70
2022-10-07T10:21:41.753Z,17.70
2022-10-07T10:24:13.880Z,17.70
2022-10-07T10:27:00.150Z,17.70
2022-10-07T10:29:48.707Z,17.70
2022-10-07T10:32:53.529Z,17.70
2022-10-07T10:35:31.059Z,17.70
2022-10-07T10:38:13.340Z,17.80
2022-10-07T10:40:49.869Z,17.70
2022-10-07T10:43:25.680Z,17.80
2022-10-07T10:46:17.386Z,17.80
2022-10-07T10:48:49.960Z,17.80
2022-10-07T10:51:45.367Z,17.90
2022-10-07T10:54:21.411Z,17.90
2022-10-07T10:57:14.861Z,17.90
2022-10-07T11:00:13.087Z,17.90
2022-10-07T11:02:43.472Z,17.90
2022-10-07T11:05:22.258Z,17.90
2022-10-07T11:08:01.677Z,17.90
2022-10-07T11:10:55.206Z,17.90
2022-10-07T11:13:33.976Z,17.90
2022-10-07T11:16:17.463Z,18.00
2022-10-07T11:18:57.038Z,18.00
2022-10-07T11:21:39.174Z,18.00
2022-10-07T11:24:36.168Z,18.00
2022-10-07T11:27:16.330Z,18.00
2022-10-07T11:29:52.592Z,18.10
2022-10-07T11:32:29.055Z,18.10
2022-10-07T11:35:20.452Z,18.10
2022-10-07T11:38:20.002Z,18.10
2022-10-07T11:41:20.458Z,18.10
2022-10-07T11:43:58.223Z,18.20
2022-10-07T11:46:31.045Z,18.20
2022-10-07T11:49:04.018Z,18.20
2022-10-07T11:51:37.858Z,18.20
2022-10-07T11:54:12.466Z,18.20
2022-10-07T11:56:49.365Z,18.20
2022-10-07T11:59:45.996Z,18.30
2022-10-07T12:02:30.877Z,18.30
2022-10-07T12:05:02.642Z,18.30
2022-10-07T12:07:35.520Z,18.30
2022-10-07T12:10:05.400Z,18.30
2022-10-07T12:12:45.653Z,18.30
2022-10-07T12:15:42.220Z,18.30
2022-10-07T12:18:10.484Z,18.30
2022-10-07T12:20:49.757Z,18.30
2022-10-07T12:23:23.938Z,18.40
2022-10-07T12:26:00.413Z,18.40
2022-10-07T12:28:43.392Z,18.40
2022-10-07T12:31:16.592Z,18.40
2022-10-07T12:33:47.032Z,18.40
2022-10-07T12:36:28.581Z,18.40
2022-10-07T12:38:58.615Z,18.40
2022-10-07T12:41:40.478Z,18.50
2022-10-07T12:44:24.540Z,18.50
2022-10-07T12:47:07.128Z,18.40
2022-10-07T12:49:42.480Z,18.50
2022-10-07T12:52:19.380Z,18.50
2022-10-07T12:54:49.654Z,18.50
2022-10-07T12:57:23.693Z,18.50
2022-10-07T13:00:02.101Z,18.60
2022-10-07T13:03:09.738Z,18.60
2022-10-07T13:05:57.577Z,18.60
2022-10-07T13:08:44.560Z,18.60
2022-10-07T13:11:36.447Z,18.60
2022-10-07T13:14:15.899Z,18.60
2022-10-07T13:16:50.729Z,18.60
2022-10-07T13:19:39.012Z,18.60
2022-10-07T13:22:16.954Z,18.70
2022-10-07T13:24:55.501Z,18.60
2022-10-07T13:27:27.781Z,18.60
2022-10-07T13:29:59.900Z,18.70
2022-10-07T13:32:33.322Z,18.70
2022-10-07T13:35:28.661Z,18.70
2022-10-07T13:37:58.191Z,18.70
2022-10-07T13:40:35.438Z,18.70
2022-10-07T13:43:14.366Z,18.80
2022-10-07T13:45:47.256Z,18.80
2022-10-07T13:48:20.932Z,18.80
2022-10-07T13:50:50.496Z,18.80
2022-10-07T13:53:25.995Z,18.80
2022-10-07T13:56:09.058Z,18.80
2022-10-07T13:58:37.476Z,18.80
2022-10-07T14:01:06.038Z,18.80
2022-10-07T14:03:33.540Z,18.90
2022-10-07T14:06:01.451Z,18.90
2022-10-07T14:08:29.349Z,18.90
2022-10-07T14:10:59.860Z,18.90
2022-10-07T14:13:29.022Z,18.90
2022-10-07T14:15:59.448Z,18.90
2022-10-07T14:18:29.750Z,19.00
2022-10-07T14:21:10.262Z,19.00
2022-10-07T14:23:37.932Z,19.00
2022-10-07T14:26:11.363Z,19.00
2022-10-07T14:28:42.602Z,19.00
2022-10-07T14:31:30.347Z,19.00
2022-10-07T14:34:22.611Z,18.90
2022-10-07T14:37:10.010Z,18.90
2022-10-07T14:39:43.807Z,18.90
2022-10-07T14:42:20.816Z,18.90
2022-10-07T14:44:49.050Z,18.80
2022-10-07T14:47:21.934Z,18.80
2022-10-07T14:49:55.372Z,18.80
2022-10-07T14:52:31.574Z,18.70
2022-10-07T14:55:02.427Z,18.70
2022-10-07T14:57:32.022Z,18.70
2022-10-07T14:59:59.291Z,18.60
2022-10-07T15:02:26.567Z,18.60
2022-10-07T15:04:53.880Z,18.60
2022-10-07T15:07:21.449Z,18.60
2022-10-07T15:09:51.369Z,18.60
2022-10-07T15:12:20.841Z,18.60
2022-10-07T15:14:50.380Z,18.60
2022-10-07T15:17:17.707Z,18.50
2022-10-07T15:19:47.453Z,18.50
2022-10-07T15:22:14.934Z,18.50
2022-10-07T15:24:45.202Z,18.50
2022-10-07T15:27:15.251Z,18.50
2022-10-07T15:29:42.493Z,18.50
2022-10-07T15:32:14.696Z,18.40
2022-10-07T15:34:45.880Z,18.40
2022-10-07T15:37:16.289Z,18.40
2022-10-07T15:39:43.852Z,18.40
2022-10-07T15:42:12.918Z,18.30
2022-10-07T15:44:44.291Z,18.30
2022-10-07T15:47:13.413Z,18.30
2022-10-07T15:49:40.730Z,18.30
2022-10-07T15:52:12.123Z,18.20
2022-10-07T15:54:39.800Z,18.20
2022-10-07T15:57:08.395Z,18.10
2022-10-07T15:59:38.137Z,18.10
2022-10-07T16:02:06.136Z,18.10
2022-10-07T16:04:33.465Z,18.10
2022-10-07T16:07:00.794Z,18.10
2022-10-07T16:09:28.953Z,18.10
2022-10-07T16:11:58.300Z,18.00
2022-10-07T16:14:27.916Z,18.00
2022-10-07T16:16:56.996Z,18.00
2022-10-07T16:19:26.575Z,17.90
2022-10-07T16:21:56.223Z,17.90
2022-10-07T16:24:23.781Z,17.80
2022-10-07T16:26:51.489Z,17.70
2022-10-07T16:29:39.472Z,17.70
2022-10-07T16:32:10.593Z,17.60
2022-10-07T16:34:44.574Z,17.60
2022-10-07T16:37:12.508Z,17.50
2022-10-07T16:39:42.277Z,17.40
2022-10-07T16:42:12.292Z,17.40
2022-10-07T16:44:41.746Z,17.30
2022-10-07T16:47:09.013Z,17.20
2022-10-07T16:49:36.871Z,17.10
2022-10-07T16:52:04.513Z,17.10
2022-10-07T16:54:35.515Z,17.10
2022-10-07T16:57:02.908Z,17.00
2022-10-07T16:59:32.303Z,17.00
2022-10-07T17:02:02.505Z,16.90
2022-10-07T17:04:30.185Z,16.90
2022-10-07T17:07:00.604Z,16.80
2022-10-07T17:09:27.974Z,16.70
2022-10-07T17:11:58.341Z,16.70
2022-10-07T17:14:26.461Z,16.70
2022-10-07T17:16:57.093Z,16.60
2022-10-07T17:19:26.544Z,16.60
2022-10-07T17:21:59.261Z,16.50
2022-10-07T17:24:26.825Z,16.50
2022-10-07T17:26:56.940Z,16.50
2022-10-07T17:29:26.208Z,16.40
2022-10-07T17:31:54.200Z,16.40
2022-10-07T17:34:21.982Z,16.30
2022-10-07T17:36:50.263Z,16.30
2022-10-07T17:39:19.332Z,16.30
2022-10-07T17:41:49.306Z,16.30
2022-10-07T17:44:16.733Z,16.20
2022-10-07T17:46:44.291Z,16.20
2022-10-07T17:49:15.219Z,16.20
2022-10-07T17:51:45.472Z,16.20
2022-10-07T17:54:13.875Z,16.10
2022-10-07T17:56:44.416Z,16.10
2022-10-07T17:59:12.328Z,16.00
2022-10-07T18:01:39.994Z,16.10
2022-10-07T18:04:10.606Z,16.00
2022-10-07T18:06:43.258Z,16.00
2022-10-07T18:09:15.475Z,16.00
2022-10-07T18:12:06.240Z,16.00
2022-10-07T18:15:08.964Z,15.90
2022-10-07T18:17:41.655Z,15.90
2022-10-07T18:20:12.823Z,15.90
2022-10-07T18:22:47.063Z,15.80
2022-10-07T18:25:14.846Z,15.80
2022-10-07T18:27:43.478Z,15.80
2022-10-07T18:30:16.548Z,15.80
2022-10-07T18:32:48.464Z,15.70
2022-10-07T18:35:15.817Z,15.70
2022-10-07T18:37:43.243Z,15.70
2022-10-07T18:40:10.960Z,15.70
2022-10-07T18:42:38.687Z,15.60
2022-10-07T18:45:06.420Z,15.60
2022-10-07T18:47:36.012Z,15.60
2022-10-07T18:50:03.630Z,15.60
2022-10-07T18:52:33.353Z,15.50
2022-10-07T18:55:02.856Z,15.50
2022-10-07T18:57:32.508Z,15.50
2022-10-07T19:00:02.249Z,15.50
2022-10-07T19:02:32.001Z,15.50
2022-10-07T19:04:59.454Z,15.40
2022-10-07T19:07:28.875Z,15.40
2022-10-07T19:09:58.405Z,15.40
2022-10-07T19:12:46.873Z,15.40
2022-10-07T19:15:14.607Z,15.30
2022-10-07T19:17:41.991Z,15.30
2022-10-07T19:20:13.747Z,15.30
2022-10-07T19:22:40.866Z,15.30
2022-10-07T19:25:30.613Z,15.30
2022-10-07T19:27:57.860Z,15.30
2022-10-07T19:30:25.256Z,15.30
2022-10-07T19:32:52.502Z,15.20
2022-10-07T19:35:21.976Z,15.20
2022-10-07T19:37:49.445Z,15.20
2022-10-07T19:40:16.882Z,15.20
2022-10-07T19:42:44.149Z,15.10
2022-10-07T19:45:11.505Z,15.20
2022-10-07T19:47:38.759Z,15.20
2022-10-07T19:50:06.649Z,15.20
2022-10-07T19:52:33.952Z,15.20
2022-10-07T19:55:06.132Z,15.20
2022-10-07T19:57:40.640Z,15.20
2022-10-07T20:00:08.724Z,15.20
2022-10-07T20:02:38.413Z,15.20
2022-10-07T20:05:07.483Z,15.30
2022-10-07T20:07:36.158Z,15.30
2022-10-07T20:10:03.834Z,15.30
2022-10-07T20:12:31.495Z,15.30
2022-10-07T20:14:58.717Z,15.30
2022-10-07T20:17:25.998Z,15.30
2022-10-07T20:19:56.471Z,15.30
2022-10-07T20:22:23.810Z,15.30
2022-10-07T20:24:53.196Z,15.30
2022-10-07T20:27:21.617Z,15.30
2022-10-07T20:30:02.448Z,15.30
2022-10-07T20:32:34.020Z,15.30
2022-10-07T20:35:04.100Z,15.20
2022-10-07T20:37:33.639Z,15.20
2022-10-07T20:40:22.033Z,15.20
2022-10-07T20:42:49.586Z,15.20
2022-10-07T20:45:17.361Z,15.20
2022-10-07T20:47:47.329Z,15.10
2022-10-07T20:50:14.892Z,15.10
2022-10-07T20:52:42.216Z,15.10
2022-10-07T20:55:11.573Z,15.10
2022-10-07T20:57:41.812Z,15.10
2022-10-07T21:00:16.174Z,15.10
2022-10-07T21:02:44.582Z,15.10
2022-10-07T21:05:12.192Z,15.10
2022-10-07T21:07:40.238Z,15.10
2022-10-07T21:10:07.717Z,15.10
2022-10-07T21:12:37.436Z,15.10
2022-10-07T21:15:04.984Z,15.20
2022-10-07T21:17:34.020Z,15.10
2022-10-07T21:20:01.255Z,15.10
2022-10-07T21:22:31.049Z,15.10
2022-10-07T21:24:58.661Z,15.10
2022-10-07T21:27:25.941Z,15.10
2022-10-07T21:29:56.114Z,15.10
2022-10-07T21:32:23.432Z,15.10
2022-10-07T21:34:51.397Z,15.00
2022-10-07T21:37:18.671Z,15.00
2022-10-07T21:39:45.908Z,15.00
2022-10-07T21:42:13.538Z,15.00
2022-10-07T21:44:40.857Z,15.00
2022-10-07T21:47:08.108Z,14.90
2022-10-07T21:49:37.903Z,14.90
2022-10-07T21:52:05.138Z,14.90
2022-10-07T21:54:32.354Z,14.90
2022-10-07T21:56:59.660Z,14.90
2022-10-07T21:59:26.940Z,14.90
2022-10-07T22:01:54.315Z,14.90
2022-10-07T22:04:24.962Z,14.90
2022-10-07T22:07:11.014Z,14.90
2022-10-07T22:09:38.283Z,14.90
2022-10-07T22:12:05.671Z,14.90
2022-10-07T22:14:32.908Z,14.90
2022-10-07T22:17:00.197Z,14.90
2022-10-07T22:19:27.496Z,14.90
2022-10-07T22:21:55.264Z,14.90
2022-10-07T22:24:25.016Z,14.90
2022-10-07T22:26:52.375Z,14.90
2022-10-07T22:29:23.059Z,14.90
2022-10-07T22:31:50.326Z,14.80
2022-10-07T22:34:36.335Z,14.90
2022-10-07T22:37:04.386Z,14.80
2022-10-07T22:39:31.936Z,14.90
2022-10-07T22:42:00.965Z,14.80
2022-10-07T22:44:31.744Z,14.80
2022-10-07T22:47:00.117Z,14.80
2022-10-07T22:49:30.466Z,14.80
2022-10-07T22:52:01.063Z,14.80
2022-10-07T22:54:30.937Z,14.80
2022-10-07T22:56:58.185Z,14.80
2022-10-07T22:59:27.646Z,14.80
2022-10-07T23:01:57.418Z,14.80
2022-10-07T23:04:29.580Z,14.80
2022-10-07T23:06:59.395Z,14.80
2022-10-07T23:09:26.674Z,14.80
2022-10-07T23:11:56.320Z,14.80
2022-10-07T23:14:26.063Z,14.80
2022-10-07T23:16:53.307Z,14.80
2022-10-07T23:19:22.714Z,14.80
2022-10-07T23:21:49.949Z,14.80
2022-10-07T23:24:17.306Z,14.80
2022-10-07T23:26:45.992Z,14.70
2022-10-07T23:29:13.601Z,14.70
2022-10-07T23:31:40.950Z,14.70
2022-10-07T23:34:10.694Z,14.70
2022-10-07T23:36:38.011Z,14.70
2022-10-07T23:39:05.300Z,14.80
2022-10-07T23:41:35.540Z,14.80
2022-10-07T23:44:05.860Z,14.70
2022-10-07T23:46:37.324Z,14.80
2022-10-07T23:49:09.072Z,14.80
2022-10-07T23:51:36.291Z,14.80
2022-10-07T23:54:04.667Z,14.80
2022-10-07T23:56:32.857Z,14.90
2022-10-07T23:59:01.682Z,14.80
